Terminal Aerodrome Forecast
Issued by NWS Albany, NY

Home | Current Version | Previous Version | Text Only | Print | Product List | Glossary On
Versions: 1 2 3 4 5 6 7 8 9 10 11 12 13 14 15 16 17 18 19 20 21 22 23 24 25 26 27 28 29 30 31 32 33 34 35 36 37 38 39 40 41 42 43
000
FTUS41 KALY 200545 CCJ
TAFPOU
TAF COR
KPOU 200545Z 2006/2106 12004KT P6SM SCT018 BKN050 WS020/22030KT
      TEMPO 2006/2010 BKN018
     FM201000 VRB03KT P6SM OVC015
     FM201700 29004KT P6SM BKN020
     FM202000 34004KT P6SM VCSH SCT020 BKN060
     FM210300 VRB03KT 4SM -DZ BR SCT008 OVC020=

USA.gov is the U.S. government's official web portal to all federal, state and local government web resources and services.